sensor_id;sensor_type;location;lat;lon;timestamp;temperature;humidity
13850;DHT22;6995;52.618;13.488;2024-03-08T00:00:18;1.30;99.90
13850;DHT22;6995;52.618;13.488;2024-03-08T00:02:45;1.30;99.90
13850;DHT22;6995;52.618;13.488;2024-03-08T00:05:11;1.30;99.90
13850;DHT22;6995;52.618;13.488;2024-03-08T00:07:41;1.30;99.90
13850;DHT22;6995;52.618;13.488;2024-03-08T00:10:09;1.20;99.90
13850;DHT22;6995;52.618;13.488;2024-03-08T00:12:37;1.20;99.90
13850;DHT22;6995;52.618;13.488;2024-03-08T00:15:03;1.20;99.90
13850;DHT22;6995;52.618;13.488;2024-03-08T00:17:29;1.20;99.90
13850;DHT22;6995;52.618;13.488;2024-03-08T00:19:54;1.20;99.90
13850;DHT22;6995;52.618;13.488;2024-03-08T00:22:20;1.20;99.90
13850;DHT22;6995;52.618;13.488;2024-03-08T00:24:47;1.10;99.90
13850;DHT22;6995;52.618;13.488;2024-03-08T00:27:14;1.10;99.90
13850;DHT22;6995;52.618;13.488;2024-03-08T00:29:41;1.10;99.90
13850;DHT22;6995;52.618;13.488;2024-03-08T00:32:06;1.00;99.90
13850;DHT22;6995;52.618;13.488;2024-03-08T00:34:35;1.00;99.90
13850;DHT22;6995;52.618;13.488;2024-03-08T00:37:02;1.00;99.90
13850;DHT22;6995;52.618;13.488;2024-03-08T00:39:28;1.00;99.90
13850;DHT22;6995;52.618;13.488;2024-03-08T00:41:54;0.90;99.90
13850;DHT22;6995;52.618;13.488;2024-03-08T00:44:19;0.90;99.90
13850;DHT22;6995;52.618;13.488;2024-03-08T00:46:45;0.80;99.90
13850;DHT22;6995;52.618;13.488;2024-03-08T00:49:11;0.80;99.90
13850;DHT22;6995;52.618;13.488;2024-03-08T00:51:38;0.80;99.90
13850;DHT22;6995;52.618;13.488;2024-03-08T00:54:03;0.80;99.90
13850;DHT22;6995;52.618;13.488;2024-03-08T00:56:29;0.70;99.90
13850;DHT22;6995;52.618;13.488;2024-03-08T00:58:55;0.70;99.90
13850;DHT22;6995;52.618;13.488;2024-03-08T01:01:20;0.80;99.90
13850;DHT22;6995;52.618;13.488;2024-03-08T01:03:46;0.70;99.90
13850;DHT22;6995;52.618;13.488;2024-03-08T01:06:11;0.70;99.90
13850;DHT22;6995;52.618;13.488;2024-03-08T01:08:37;0.70;99.90
13850;DHT22;6995;52.618;13.488;2024-03-08T01:11:08;0.70;99.90
13850;DHT22;6995;52.618;13.488;2024-03-08T01:13:34;0.70;99.90
13850;DHT22;6995;52.618;13.488;2024-03-08T01:16:00;0.70;99.90
13850;DHT22;6995;52.618;13.488;2024-03-08T01:18:25;0.70;99.90
13850;DHT22;6995;52.618;13.488;2024-03-08T01:20:51;0.60;99.90
13850;DHT22;6995;52.618;13.488;2024-03-08T01:23:16;0.60;99.90
13850;DHT22;6995;52.618;13.488;2024-03-08T01:25:42;0.60;99.90
13850;DHT22;6995;52.618;13.488;2024-03-08T01:28:09;0.60;99.90
13850;DHT22;6995;52.618;13.488;2024-03-08T01:30:34;0.60;99.90
13850;DHT22;6995;52.618;13.488;2024-03-08T01:33:02;0.60;99.90
13850;DHT22;6995;52.618;13.488;2024-03-08T01:35:27;0.60;99.90
13850;DHT22;6995;52.618;13.488;2024-03-08T01:37:53;0.70;99.90
13850;DHT22;6995;52.618;13.488;2024-03-08T01:40:19;0.60;99.90
13850;DHT22;6995;52.618;13.488;2024-03-08T01:42:44;0.70;99.90
13850;DHT22;6995;52.618;13.488;2024-03-08T01:45:10;0.60;99.90
13850;DHT22;6995;52.618;13.488;2024-03-08T01:47:36;0.60;99.90
13850;DHT22;6995;52.618;13.488;2024-03-08T01:50:02;0.60;99.90
13850;DHT22;6995;52.618;13.488;2024-03-08T01:52:32;0.60;99.90
13850;DHT22;6995;52.618;13.488;2024-03-08T01:54:59;0.60;99.90
13850;DHT22;6995;52.618;13.488;2024-03-08T01:57:27;0.60;99.90
13850;DHT22;6995;52.618;13.488;2024-03-08T01:59:54;0.60;99.90
13850;DHT22;6995;52.618;13.488;2024-03-08T02:02:22;0.60;99.90
13850;DHT22;6995;52.618;13.488;2024-03-08T02:04:48;0.60;99.90
13850;DHT22;6995;52.618;13.488;2024-03-08T02:07:14;0.60;99.90
13850;DHT22;6995;52.618;13.488;2024-03-08T02:09:39;0.50;99.90
13850;DHT22;6995;52.618;13.488;2024-03-08T02:12:06;0.50;99.90
13850;DHT22;6995;52.618;13.488;2024-03-08T02:14:32;0.50;99.90
13850;DHT22;6995;52.618;13.488;2024-03-08T02:17:01;0.50;99.90
13850;DHT22;6995;52.618;13.488;2024-03-08T02:19:27;0.40;99.90
13850;DHT22;6995;52.618;13.488;2024-03-08T02:21:53;0.40;99.90
13850;DHT22;6995;52.618;13.488;2024-03-08T02:24:19;0.40;99.90
13850;DHT22;6995;52.618;13.488;2024-03-08T02:26:44;0.40;99.90
13850;DHT22;6995;52.618;13.488;2024-03-08T02:29:10;0.30;99.90
13850;DHT22;6995;52.618;13.488;2024-03-08T02:31:35;0.30;99.90
13850;DHT22;6995;52.618;13.488;2024-03-08T02:34:01;0.30;99.90
13850;DHT22;6995;52.618;13.488;2024-03-08T02:36:27;0.30;99.90
13850;DHT22;6995;52.618;13.488;2024-03-08T02:38:53;0.30;99.90
13850;DHT22;6995;52.618;13.488;2024-03-08T02:41:20;0.30;99.90
13850;DHT22;6995;52.618;13.488;2024-03-08T02:43:46;0.40;99.90
13850;DHT22;6995;52.618;13.488;2024-03-08T02:46:12;0.30;99.90
13850;DHT22;6995;52.618;13.488;2024-03-08T02:48:37;0.30;99.90
13850;DHT22;6995;52.618;13.488;2024-03-08T02:51:03;0.30;99.90
13850;DHT22;6995;52.618;13.488;2024-03-08T02:53:29;0.30;99.90
13850;DHT22;6995;52.618;13.488;2024-03-08T02:55:54;0.30;99.90
13850;DHT22;6995;52.618;13.488;2024-03-08T02:58:20;0.30;99.90
13850;DHT22;6995;52.618;13.488;2024-03-08T03:00:46;0.20;99.90
13850;DHT22;6995;52.618;13.488;2024-03-08T03:03:11;0.20;99.90
13850;DHT22;6995;52.618;13.488;2024-03-08T03:05:37;0.20;99.90
13850;DHT22;6995;52.618;13.488;2024-03-08T03:08:03;0.20;99.90
13850;DHT22;6995;52.618;13.488;2024-03-08T03:10:34;0.20;99.90
13850;DHT22;6995;52.618;13.488;2024-03-08T03:13:00;0.20;99.90
13850;DHT22;6995;52.618;13.488;2024-03-08T03:15:25;0.20;99.90
13850;DHT22;6995;52.618;13.488;2024-03-08T03:17:51;0.20;99.90
13850;DHT22;6995;52.618;13.488;2024-03-08T03:20:17;0.20;99.90
13850;DHT22;6995;52.618;13.488;2024-03-08T03:22:51;0.20;99.90
13850;DHT22;6995;52.618;13.488;2024-03-08T03:25:20;0.10;99.90
13850;DHT22;6995;52.618;13.488;2024-03-08T03:27:54;0.20;99.90
13850;DHT22;6995;52.618;13.488;2024-03-08T03:30:22;0.20;99.90
13850;DHT22;6995;52.618;13.488;2024-03-08T03:32:49;0.10;99.90
13850;DHT22;6995;52.618;13.488;2024-03-08T03:35:19;0.10;99.90
13850;DHT22;6995;52.618;13.488;2024-03-08T03:37:46;0.00;99.90
13850;DHT22;6995;52.618;13.488;2024-03-08T03:40:27;0.00;99.90
13850;DHT22;6995;52.618;13.488;2024-03-08T03:42:53;0.00;99.90
13850;DHT22;6995;52.618;13.488;2024-03-08T03:45:19;0.00;99.90
13850;DHT22;6995;52.618;13.488;2024-03-08T03:47:45;0.00;99.90
13850;DHT22;6995;52.618;13.488;2024-03-08T03:50:11;0.00;99.90
13850;DHT22;6995;52.618;13.488;2024-03-08T03:52:37;0.00;99.90
13850;DHT22;6995;52.618;13.488;2024-03-08T03:55:03;0.00;99.90
13850;DHT22;6995;52.618;13.488;2024-03-08T03:57:30;0.00;99.90
13850;DHT22;6995;52.618;13.488;2024-03-08T03:59:56;0.00;99.90
13850;DHT22;6995;52.618;13.488;2024-03-08T04:02:24;0.00;99.90
13850;DHT22;6995;52.618;13.488;2024-03-08T04:04:52;0.00;99.90
13850;DHT22;6995;52.618;13.488;2024-03-08T04:07:17;0.00;99.90
13850;DHT22;6995;52.618;13.488;2024-03-08T04:09:43;0.00;99.90
13850;DHT22;6995;52.618;13.488;2024-03-08T04:12:09;-0.10;99.90
13850;DHT22;6995;52.618;13.488;2024-03-08T04:14:35;-0.10;99.90
13850;DHT22;6995;52.618;13.488;2024-03-08T04:17:01;-0.10;99.90
13850;DHT22;6995;52.618;13.488;2024-03-08T04:19:27;-0.10;99.90
13850;DHT22;6995;52.618;13.488;2024-03-08T04:21:53;-0.10;99.90
13850;DHT22;6995;52.618;13.488;2024-03-08T04:24:19;-0.20;99.90
13850;DHT22;6995;52.618;13.488;2024-03-08T04:26:46;-0.10;99.90
13850;DHT22;6995;52.618;13.488;2024-03-08T04:29:12;-0.20;99.90
13850;DHT22;6995;52.618;13.488;2024-03-08T04:31:40;-0.10;99.90
13850;DHT22;6995;52.618;13.488;2024-03-08T04:34:05;-0.20;99.90
13850;DHT22;6995;52.618;13.488;2024-03-08T04:36:31;-0.20;99.90
13850;DHT22;6995;52.618;13.488;2024-03-08T04:38:56;-0.10;99.90
13850;DHT22;6995;52.618;13.488;2024-03-08T04:41:22;-0.10;99.90
13850;DHT22;6995;52.618;13.488;2024-03-08T04:43:49;-0.20;99.90
13850;DHT22;6995;52.618;13.488;2024-03-08T04:46:14;-0.20;99.90
13850;DHT22;6995;52.618;13.488;2024-03-08T04:48:40;-0.20;99.90
13850;DHT22;6995;52.618;13.488;2024-03-08T04:51:07;-0.20;99.90
13850;DHT22;6995;52.618;13.488;2024-03-08T04:53:33;-0.20;99.90
13850;DHT22;6995;52.618;13.488;2024-03-08T04:55:59;-0.10;99.90
13850;DHT22;6995;52.618;13.488;2024-03-08T04:58:25;-0.20;99.90
13850;DHT22;6995;52.618;13.488;2024-03-08T05:00:51;-0.20;99.90
13850;DHT22;6995;52.618;13.488;2024-03-08T05:03:17;-0.20;99.90
13850;DHT22;6995;52.618;13.488;2024-03-08T05:05:43;-0.20;99.90
13850;DHT22;6995;52.618;13.488;2024-03-08T05:08:09;-0.20;99.90
13850;DHT22;6995;52.618;13.488;2024-03-08T05:10:34;-0.20;99.90
13850;DHT22;6995;52.618;13.488;2024-03-08T05:13:00;-0.20;99.90
13850;DHT22;6995;52.618;13.488;2024-03-08T05:15:25;-0.10;99.90
13850;DHT22;6995;52.618;13.488;2024-03-08T05:17:51;-0.20;99.90
13850;DHT22;6995;52.618;13.488;2024-03-08T05:20:17;-0.20;99.90
13850;DHT22;6995;52.618;13.488;2024-03-08T05:22:42;-0.10;99.90
13850;DHT22;6995;52.618;13.488;2024-03-08T05:25:08;-0.20;99.90
13850;DHT22;6995;52.618;13.488;2024-03-08T05:27:35;-0.20;99.90
13850;DHT22;6995;52.618;13.488;2024-03-08T05:30:04;-0.20;99.90
13850;DHT22;6995;52.618;13.488;2024-03-08T05:32:31;-0.10;99.90
13850;DHT22;6995;52.618;13.488;2024-03-08T05:34:56;-0.10;99.90
13850;DHT22;6995;52.618;13.488;2024-03-08T05:37:22;-0.20;99.90
13850;DHT22;6995;52.618;13.488;2024-03-08T05:39:48;-0.20;99.90
13850;DHT22;6995;52.618;13.488;2024-03-08T05:42:14;-0.20;99.90
13850;DHT22;6995;52.618;13.488;2024-03-08T05:44:39;-0.20;99.90
13850;DHT22;6995;52.618;13.488;2024-03-08T05:47:06;-0.20;99.90
13850;DHT22;6995;52.618;13.488;2024-03-08T05:49:32;-0.20;99.90
13850;DHT22;6995;52.618;13.488;2024-03-08T05:51:59;-0.20;99.90
13850;DHT22;6995;52.618;13.488;2024-03-08T05:54:25;-0.20;99.90
13850;DHT22;6995;52.618;13.488;2024-03-08T05:56:52;-0.20;99.90
13850;DHT22;6995;52.618;13.488;2024-03-08T05:59:18;-0.10;1.40
13850;DHT22;6995;52.618;13.488;2024-03-08T06:01:43;-0.10;99.90
13850;DHT22;6995;52.618;13.488;2024-03-08T06:04:11;-0.10;99.90
13850;DHT22;6995;52.618;13.488;2024-03-08T06:06:37;0.00;99.90
13850;DHT22;6995;52.618;13.488;2024-03-08T06:09:03;0.00;99.90
13850;DHT22;6995;52.618;13.488;2024-03-08T06:11:36;0.00;99.90
13850;DHT22;6995;52.618;13.488;2024-03-08T06:14:03;0.10;99.90
13850;DHT22;6995;52.618;13.488;2024-03-08T06:16:28;0.10;99.90
13850;DHT22;6995;52.618;13.488;2024-03-08T06:18:56;0.10;99.90
13850;DHT22;6995;52.618;13.488;2024-03-08T06:21:22;0.20;99.90
13850;DHT22;6995;52.618;13.488;2024-03-08T06:23:48;0.30;99.90
13850;DHT22;6995;52.618;13.488;2024-03-08T06:26:14;0.40;99.90
13850;DHT22;6995;52.618;13.488;2024-03-08T06:28:39;0.40;99.90
13850;DHT22;6995;52.618;13.488;2024-03-08T06:31:05;0.40;99.90
13850;DHT22;6995;52.618;13.488;2024-03-08T06:33:31;0.50;99.90
13850;DHT22;6995;52.618;13.488;2024-03-08T06:35:57;0.50;99.90
13850;DHT22;6995;52.618;13.488;2024-03-08T06:38:26;0.60;99.90
13850;DHT22;6995;52.618;13.488;2024-03-08T06:40:52;0.70;99.90
13850;DHT22;6995;52.618;13.488;2024-03-08T06:43:18;0.80;99.90
13850;DHT22;6995;52.618;13.488;2024-03-08T06:45:47;0.80;99.90
13850;DHT22;6995;52.618;13.488;2024-03-08T06:48:16;0.90;99.90
13850;DHT22;6995;52.618;13.488;2024-03-08T06:50:43;1.00;99.90
13850;DHT22;6995;52.618;13.488;2024-03-08T06:53:09;1.00;99.90
13850;DHT22;6995;52.618;13.488;2024-03-08T06:55:35;1.00;99.90
13850;DHT22;6995;52.618;13.488;2024-03-08T06:58:01;1.20;99.90
13850;DHT22;6995;52.618;13.488;2024-03-08T07:00:29;1.30;99.90
13850;DHT22;6995;52.618;13.488;2024-03-08T07:02:56;1.40;99.90
13850;DHT22;6995;52.618;13.488;2024-03-08T07:05:26;1.50;99.90
13850;DHT22;6995;52.618;13.488;2024-03-08T07:07:52;1.60;99.90
13850;DHT22;6995;52.618;13.488;2024-03-08T07:10:18;1.70;99.90
13850;DHT22;6995;52.618;13.488;2024-03-08T07:12:44;1.80;99.90
13850;DHT22;6995;52.618;13.488;2024-03-08T07:15:12;1.80;99.90
13850;DHT22;6995;52.618;13.488;2024-03-08T07:17:41;1.90;99.90
13850;DHT22;6995;52.618;13.488;2024-03-08T07:20:10;2.00;99.90
13850;DHT22;6995;52.618;13.488;2024-03-08T07:22:38;2.00;99.90
13850;DHT22;6995;52.618;13.488;2024-03-08T07:25:05;2.20;99.90
13850;DHT22;6995;52.618;13.488;2024-03-08T07:27:53;2.20;99.90
13850;DHT22;6995;52.618;13.488;2024-03-08T07:30:28;2.40;99.90
13850;DHT22;6995;52.618;13.488;2024-03-08T07:33:10;2.50;99.90
13850;DHT22;6995;52.618;13.488;2024-03-08T07:35:39;2.50;99.90
13850;DHT22;6995;52.618;13.488;2024-03-08T07:38:06;2.60;99.90
13850;DHT22;6995;52.618;13.488;2024-03-08T07:40:39;2.70;99.90
13850;DHT22;6995;52.618;13.488;2024-03-08T07:43:09;2.70;99.90
13850;DHT22;6995;52.618;13.488;2024-03-08T07:45:36;2.80;99.90
13850;DHT22;6995;52.618;13.488;2024-03-08T07:48:02;2.90;99.90
13850;DHT22;6995;52.618;13.488;2024-03-08T07:50:28;2.90;99.90
13850;DHT22;6995;52.618;13.488;2024-03-08T07:52:54;2.90;99.90
13850;DHT22;6995;52.618;13.488;2024-03-08T07:55:20;3.00;99.90
13850;DHT22;6995;52.618;13.488;2024-03-08T07:57:45;3.20;99.90
13850;DHT22;6995;52.618;13.488;2024-03-08T08:00:13;3.30;99.90
13850;DHT22;6995;52.618;13.488;2024-03-08T08:02:44;3.40;99.90
13850;DHT22;6995;52.618;13.488;2024-03-08T08:05:11;3.40;99.90
13850;DHT22;6995;52.618;13.488;2024-03-08T08:07:36;3.50;99.90
13850;DHT22;6995;52.618;13.488;2024-03-08T08:10:02;3.60;99.90
13850;DHT22;6995;52.618;13.488;2024-03-08T08:12:28;3.70;99.90
13850;DHT22;6995;52.618;13.488;2024-03-08T08:14:54;3.80;99.90
13850;DHT22;6995;52.618;13.488;2024-03-08T08:17:20;3.80;99.90
13850;DHT22;6995;52.618;13.488;2024-03-08T08:19:45;3.90;99.90
13850;DHT22;6995;52.618;13.488;2024-03-08T08:22:11;4.00;99.90
13850;DHT22;6995;52.618;13.488;2024-03-08T08:24:37;4.10;99.90
13850;DHT22;6995;52.618;13.488;2024-03-08T08:27:03;4.20;99.90
13850;DHT22;6995;52.618;13.488;2024-03-08T08:29:29;4.20;99.90
13850;DHT22;6995;52.618;13.488;2024-03-08T08:31:57;4.30;99.90
13850;DHT22;6995;52.618;13.488;2024-03-08T08:34:24;4.40;99.90
13850;DHT22;6995;52.618;13.488;2024-03-08T08:36:52;4.50;99.90
13850;DHT22;6995;52.618;13.488;2024-03-08T08:39:18;4.50;99.90
13850;DHT22;6995;52.618;13.488;2024-03-08T08:41:44;4.60;99.90
13850;DHT22;6995;52.618;13.488;2024-03-08T08:44:10;4.70;99.90
13850;DHT22;6995;52.618;13.488;2024-03-08T08:46:37;4.80;99.90
13850;DHT22;6995;52.618;13.488;2024-03-08T08:49:04;4.80;99.90
13850;DHT22;6995;52.618;13.488;2024-03-08T08:51:30;4.90;99.90
13850;DHT22;6995;52.618;13.488;2024-03-08T08:53:56;5.00;99.90
13850;DHT22;6995;52.618;13.488;2024-03-08T08:56:22;5.00;99.90
13850;DHT22;6995;52.618;13.488;2024-03-08T08:58:47;5.10;99.90
13850;DHT22;6995;52.618;13.488;2024-03-08T09:01:14;5.20;99.90
13850;DHT22;6995;52.618;13.488;2024-03-08T09:03:40;5.20;99.90
13850;DHT22;6995;52.618;13.488;2024-03-08T09:06:07;5.30;99.90
13850;DHT22;6995;52.618;13.488;2024-03-08T09:08:39;5.40;99.90
13850;DHT22;6995;52.618;13.488;2024-03-08T09:11:05;5.50;99.90
13850;DHT22;6995;52.618;13.488;2024-03-08T09:13:31;5.60;99.90
13850;DHT22;6995;52.618;13.488;2024-03-08T09:15:57;5.60;99.90
13850;DHT22;6995;52.618;13.488;2024-03-08T09:18:22;5.60;99.90
13850;DHT22;6995;52.618;13.488;2024-03-08T09:20:49;5.70;99.90
13850;DHT22;6995;52.618;13.488;2024-03-08T09:23:15;5.70;99.90
13850;DHT22;6995;52.618;13.488;2024-03-08T09:25:42;5.60;99.90
13850;DHT22;6995;52.618;13.488;2024-03-08T09:28:09;5.70;99.90
13850;DHT22;6995;52.618;13.488;2024-03-08T09:30:37;5.70;99.90
13850;DHT22;6995;52.618;13.488;2024-03-08T09:33:04;5.70;99.90
13850;DHT22;6995;52.618;13.488;2024-03-08T09:35:29;5.80;99.90
13850;DHT22;6995;52.618;13.488;2024-03-08T09:37:55;5.80;99.90
13850;DHT22;6995;52.618;13.488;2024-03-08T09:40:21;5.90;99.90
13850;DHT22;6995;52.618;13.488;2024-03-08T09:42:49;5.90;99.90
13850;DHT22;6995;52.618;13.488;2024-03-08T09:45:14;6.00;99.90
13850;DHT22;6995;52.618;13.488;2024-03-08T09:47:43;6.00;99.90
13850;DHT22;6995;52.618;13.488;2024-03-08T09:50:10;6.10;99.90
13850;DHT22;6995;52.618;13.488;2024-03-08T09:52:39;6.10;99.90
13850;DHT22;6995;52.618;13.488;2024-03-08T09:55:05;6.10;99.90
13850;DHT22;6995;52.618;13.488;2024-03-08T09:57:33;6.20;99.90
13850;DHT22;6995;52.618;13.488;2024-03-08T09:59:59;6.20;99.90
13850;DHT22;6995;52.618;13.488;2024-03-08T10:02:25;6.30;99.90
13850;DHT22;6995;52.618;13.488;2024-03-08T10:04:51;6.40;99.90
13850;DHT22;6995;52.618;13.488;2024-03-08T10:07:18;6.50;99.90
13850;DHT22;6995;52.618;13.488;2024-03-08T10:09:44;6.50;99.90
13850;DHT22;6995;52.618;13.488;2024-03-08T10:12:16;6.60;99.90
13850;DHT22;6995;52.618;13.488;2024-03-08T10:14:43;6.60;99.90
13850;DHT22;6995;52.618;13.488;2024-03-08T10:17:08;6.60;99.90
13850;DHT22;6995;52.618;13.488;2024-03-08T10:19:34;6.60;99.90
13850;DHT22;6995;52.618;13.488;2024-03-08T10:22:00;6.70;99.90
13850;DHT22;6995;52.618;13.488;2024-03-08T10:24:26;6.80;99.90
13850;DHT22;6995;52.618;13.488;2024-03-08T10:26:53;6.90;99.90
13850;DHT22;6995;52.618;13.488;2024-03-08T10:29:19;7.00;99.90
13850;DHT22;6995;52.618;13.488;2024-03-08T10:31:45;7.10;99.90
13850;DHT22;6995;52.618;13.488;2024-03-08T10:34:11;7.10;99.90
13850;DHT22;6995;52.618;13.488;2024-03-08T10:36:36;7.00;99.90
13850;DHT22;6995;52.618;13.488;2024-03-08T10:39:12;7.10;99.90
13850;DHT22;6995;52.618;13.488;2024-03-08T10:41:41;7.20;99.90
13850;DHT22;6995;52.618;13.488;2024-03-08T10:44:38;7.30;99.90
13850;DHT22;6995;52.618;13.488;2024-03-08T10:47:21;7.30;99.90
13850;DHT22;6995;52.618;13.488;2024-03-08T10:50:16;7.30;99.90
13850;DHT22;6995;52.618;13.488;2024-03-08T10:52:50;7.30;99.90
13850;DHT22;6995;52.618;13.488;2024-03-08T10:55:17;7.40;99.90
13850;DHT22;6995;52.618;13.488;2024-03-08T10:57:43;7.60;99.90
13850;DHT22;6995;52.618;13.488;2024-03-08T11:00:10;7.50;99.90
13850;DHT22;6995;52.618;13.488;2024-03-08T11:02:37;7.60;99.90
13850;DHT22;6995;52.618;13.488;2024-03-08T11:05:03;7.70;99.90
13850;DHT22;6995;52.618;13.488;2024-03-08T11:07:33;7.70;99.90
13850;DHT22;6995;52.618;13.488;2024-03-08T11:10:02;7.80;99.90
13850;DHT22;6995;52.618;13.488;2024-03-08T11:12:36;7.80;99.90
13850;DHT22;6995;52.618;13.488;2024-03-08T11:15:10;7.90;99.90
13850;DHT22;6995;52.618;13.488;2024-03-08T11:20:10;7.90;99.90
13850;DHT22;6995;52.618;13.488;2024-03-08T11:22:42;8.00;99.90
13850;DHT22;6995;52.618;13.488;2024-03-08T11:25:34;8.00;99.90
13850;DHT22;6995;52.618;13.488;2024-03-08T11:28:18;8.20;99.90
13850;DHT22;6995;52.618;13.488;2024-03-08T11:33:35;8.40;99.90
13850;DHT22;6995;52.618;13.488;2024-03-08T11:36:22;8.30;99.90
13850;DHT22;6995;52.618;13.488;2024-03-08T11:38:52;8.50;99.90
13850;DHT22;6995;52.618;13.488;2024-03-08T11:41:22;8.40;99.90
13850;DHT22;6995;52.618;13.488;2024-03-08T11:43:49;8.40;99.90
13850;DHT22;6995;52.618;13.488;2024-03-08T11:46:16;8.40;99.90
13850;DHT22;6995;52.618;13.488;2024-03-08T11:48:43;8.60;99.90
13850;DHT22;6995;52.618;13.488;2024-03-08T11:51:11;8.70;99.90
13850;DHT22;6995;52.618;13.488;2024-03-08T11:53:38;8.80;99.90
13850;DHT22;6995;52.618;13.488;2024-03-08T11:56:10;8.80;99.90
13850;DHT22;6995;52.618;13.488;2024-03-08T11:58:37;8.90;99.90
13850;DHT22;6995;52.618;13.488;2024-03-08T12:01:10;9.10;99.90
13850;DHT22;6995;52.618;13.488;2024-03-08T12:03:42;9.00;99.90
13850;DHT22;6995;52.618;13.488;2024-03-08T12:06:08;9.20;99.90
13850;DHT22;6995;52.618;13.488;2024-03-08T12:08:35;9.30;99.90
13850;DHT22;6995;52.618;13.488;2024-03-08T12:11:01;9.40;99.90
13850;DHT22;6995;52.618;13.488;2024-03-08T12:13:33;9.50;99.90
13850;DHT22;6995;52.618;13.488;2024-03-08T12:16:00;9.60;99.90
13850;DHT22;6995;52.618;13.488;2024-03-08T12:18:27;9.70;99.90
13850;DHT22;6995;52.618;13.488;2024-03-08T12:21:06;9.80;99.90
13850;DHT22;6995;52.618;13.488;2024-03-08T12:26:28;9.70;99.90
13850;DHT22;6995;52.618;13.488;2024-03-08T12:28:56;9.80;99.90
13850;DHT22;6995;52.618;13.488;2024-03-08T12:31:39;10.00;99.90
13850;DHT22;6995;52.618;13.488;2024-03-08T12:34:08;10.20;99.90
13850;DHT22;6995;52.618;13.488;2024-03-08T12:36:36;10.30;99.90
13850;DHT22;6995;52.618;13.488;2024-03-08T12:39:02;10.40;99.90
13850;DHT22;6995;52.618;13.488;2024-03-08T12:41:29;10.50;99.90
13850;DHT22;6995;52.618;13.488;2024-03-08T12:43:54;10.40;99.90
13850;DHT22;6995;52.618;13.488;2024-03-08T12:46:21;10.50;99.90
13850;DHT22;6995;52.618;13.488;2024-03-08T12:48:48;10.70;99.90
13850;DHT22;6995;52.618;13.488;2024-03-08T12:51:14;10.80;99.90
13850;DHT22;6995;52.618;13.488;2024-03-08T12:53:42;11.00;99.90
13850;DHT22;6995;52.618;13.488;2024-03-08T12:56:10;11.30;99.90
13850;DHT22;6995;52.618;13.488;2024-03-08T12:58:36;11.40;99.90
13850;DHT22;6995;52.618;13.488;2024-03-08T13:01:02;11.70;99.90
13850;DHT22;6995;52.618;13.488;2024-03-08T13:03:30;12.10;99.90
13850;DHT22;6995;52.618;13.488;2024-03-08T13:05:57;12.20;99.90
13850;DHT22;6995;52.618;13.488;2024-03-08T13:08:22;12.80;99.90
13850;DHT22;6995;52.618;13.488;2024-03-08T13:10:50;13.40;99.90
13850;DHT22;6995;52.618;13.488;2024-03-08T13:13:16;13.50;99.90
13850;DHT22;6995;52.618;13.488;2024-03-08T13:15:42;13.70;99.90
13850;DHT22;6995;52.618;13.488;2024-03-08T13:18:08;14.20;99.90
13850;DHT22;6995;52.618;13.488;2024-03-08T13:20:35;14.50;99.90
13850;DHT22;6995;52.618;13.488;2024-03-08T13:23:04;14.70;99.90
13850;DHT22;6995;52.618;13.488;2024-03-08T13:25:33;14.80;99.90
13850;DHT22;6995;52.618;13.488;2024-03-08T13:27:58;14.80;99.90
13850;DHT22;6995;52.618;13.488;2024-03-08T13:30:26;14.50;99.90
13850;DHT22;6995;52.618;13.488;2024-03-08T13:32:55;14.10;99.90
13850;DHT22;6995;52.618;13.488;2024-03-08T13:35:21;14.30;99.90
13850;DHT22;6995;52.618;13.488;2024-03-08T13:37:52;14.50;99.90
13850;DHT22;6995;52.618;13.488;2024-03-08T13:40:18;14.60;99.90
13850;DHT22;6995;52.618;13.488;2024-03-08T13:42:47;14.80;99.90
13850;DHT22;6995;52.618;13.488;2024-03-08T13:45:14;14.90;99.90
13850;DHT22;6995;52.618;13.488;2024-03-08T13:47:43;14.80;99.90
13850;DHT22;6995;52.618;13.488;2024-03-08T13:50:10;14.80;99.90
13850;DHT22;6995;52.618;13.488;2024-03-08T13:52:39;15.10;99.90
13850;DHT22;6995;52.618;13.488;2024-03-08T13:55:05;15.20;99.90
13850;DHT22;6995;52.618;13.488;2024-03-08T13:57:32;15.30;99.90
13850;DHT22;6995;52.618;13.488;2024-03-08T13:59:58;15.00;99.90
13850;DHT22;6995;52.618;13.488;2024-03-08T14:02:24;15.10;99.90
13850;DHT22;6995;52.618;13.488;2024-03-08T14:04:54;15.50;99.90
13850;DHT22;6995;52.618;13.488;2024-03-08T14:07:20;15.60;99.30
13850;DHT22;6995;52.618;13.488;2024-03-08T14:09:46;15.70;99.90
13850;DHT22;6995;52.618;13.488;2024-03-08T14:12:11;15.40;97.00
13850;DHT22;6995;52.618;13.488;2024-03-08T14:14:37;15.60;98.10
13850;DHT22;6995;52.618;13.488;2024-03-08T14:17:03;15.70;99.20
13850;DHT22;6995;52.618;13.488;2024-03-08T14:19:29;16.10;95.50
13850;DHT22;6995;52.618;13.488;2024-03-08T14:21:56;15.90;97.20
13850;DHT22;6995;52.618;13.488;2024-03-08T14:24:24;15.90;95.30
13850;DHT22;6995;52.618;13.488;2024-03-08T14:26:50;15.90;96.70
13850;DHT22;6995;52.618;13.488;2024-03-08T14:29:16;16.00;95.90
13850;DHT22;6995;52.618;13.488;2024-03-08T14:31:43;16.10;94.70
13850;DHT22;6995;52.618;13.488;2024-03-08T14:34:09;16.00;94.60
13850;DHT22;6995;52.618;13.488;2024-03-08T14:36:35;16.10;92.70
13850;DHT22;6995;52.618;13.488;2024-03-08T14:39:00;16.10;93.40
13850;DHT22;6995;52.618;13.488;2024-03-08T14:41:26;15.80;92.40
13850;DHT22;6995;52.618;13.488;2024-03-08T14:43:52;15.90;96.80
13850;DHT22;6995;52.618;13.488;2024-03-08T14:46:19;16.20;90.90
13850;DHT22;6995;52.618;13.488;2024-03-08T14:48:49;16.00;92.40
13850;DHT22;6995;52.618;13.488;2024-03-08T14:51:17;16.20;93.00
13850;DHT22;6995;52.618;13.488;2024-03-08T14:53:45;16.50;91.80
13850;DHT22;6995;52.618;13.488;2024-03-08T14:56:11;16.50;89.10
13850;DHT22;6995;52.618;13.488;2024-03-08T14:58:45;16.30;91.60
13850;DHT22;6995;52.618;13.488;2024-03-08T15:01:12;16.10;90.50
13850;DHT22;6995;52.618;13.488;2024-03-08T15:03:41;16.00;89.30
13850;DHT22;6995;52.618;13.488;2024-03-08T15:06:08;16.00;89.10
13850;DHT22;6995;52.618;13.488;2024-03-08T15:08:38;15.50;90.70
13850;DHT22;6995;52.618;13.488;2024-03-08T15:11:05;15.10;93.20
13850;DHT22;6995;52.618;13.488;2024-03-08T15:13:32;14.90;92.90
13850;DHT22;6995;52.618;13.488;2024-03-08T15:16:10;14.60;97.00
13850;DHT22;6995;52.618;13.488;2024-03-08T15:18:44;13.70;97.10
13850;DHT22;6995;52.618;13.488;2024-03-08T15:21:14;13.30;99.90
13850;DHT22;6995;52.618;13.488;2024-03-08T15:23:44;13.10;99.90
13850;DHT22;6995;52.618;13.488;2024-03-08T15:26:15;12.80;99.90
13850;DHT22;6995;52.618;13.488;2024-03-08T15:28:42;12.70;99.90
13850;DHT22;6995;52.618;13.488;2024-03-08T15:31:12;12.50;99.90
13850;DHT22;6995;52.618;13.488;2024-03-08T15:33:39;12.40;99.90
13850;DHT22;6995;52.618;13.488;2024-03-08T15:36:14;12.10;99.90
13850;DHT22;6995;52.618;13.488;2024-03-08T15:38:41;11.70;99.90
13850;DHT22;6995;52.618;13.488;2024-03-08T15:41:09;11.50;99.90
13850;DHT22;6995;52.618;13.488;2024-03-08T15:43:41;11.10;99.90
13850;DHT22;6995;52.618;13.488;2024-03-08T15:46:10;10.90;99.90
13850;DHT22;6995;52.618;13.488;2024-03-08T15:48:37;10.80;99.90